sensor_id;sensor_type;location;lat;lon;timestamp;temperature;humidity
10662;DHT22;5379;51.034;7.006;2023-04-25T04:31:47;11.10;99.90
10662;DHT22;5379;51.034;7.006;2023-04-25T04:34:14;11.10;99.90
10662;DHT22;5379;51.034;7.006;2023-04-25T04:36:42;11.20;99.90
10662;DHT22;5379;51.034;7.006;2023-04-25T04:39:10;11.30;99.90
10662;DHT22;5379;51.034;7.006;2023-04-25T04:41:37;11.30;99.90
10662;DHT22;5379;51.034;7.006;2023-04-25T04:44:05;11.30;99.90
10662;DHT22;5379;51.034;7.006;2023-04-25T04:46:32;11.40;99.90
10662;DHT22;5379;51.034;7.006;2023-04-25T04:49:04;11.40;99.90
10662;DHT22;5379;51.034;7.006;2023-04-25T04:51:31;11.40;99.90
10662;DHT22;5379;51.034;7.006;2023-04-25T04:53:59;11.70;99.90
10662;DHT22;5379;51.034;7.006;2023-04-25T04:56:28;11.60;99.90
10662;DHT22;5379;51.034;7.006;2023-04-25T04:58:56;11.70;99.90
10662;DHT22;5379;51.034;7.006;2023-04-25T05:01:23;11.50;99.90
10662;DHT22;5379;51.034;7.006;2023-04-25T05:03:50;11.70;99.90
10662;DHT22;5379;51.034;7.006;2023-04-25T05:06:19;11.70;99.90
10662;DHT22;5379;51.034;7.006;2023-04-25T05:08:45;11.60;99.90
10662;DHT22;5379;51.034;7.006;2023-04-25T05:11:12;11.40;99.90
10662;DHT22;5379;51.034;7.006;2023-04-25T05:13:39;11.40;99.90
10662;DHT22;5379;51.034;7.006;2023-04-25T05:16:06;11.50;99.90
10662;DHT22;5379;51.034;7.006;2023-04-25T05:18:33;11.50;99.90
10662;DHT22;5379;51.034;7.006;2023-04-25T05:21:00;11.20;99.90
10662;DHT22;5379;51.034;7.006;2023-04-25T05:23:29;11.10;99.90
10662;DHT22;5379;51.034;7.006;2023-04-25T05:25:56;11.00;99.90
10662;DHT22;5379;51.034;7.006;2023-04-25T05:28:23;10.90;99.90
10662;DHT22;5379;51.034;7.006;2023-04-25T05:30:50;10.80;99.90
10662;DHT22;5379;51.034;7.006;2023-04-25T05:33:17;10.80;99.90
10662;DHT22;5379;51.034;7.006;2023-04-25T05:35:44;10.80;99.90
10662;DHT22;5379;51.034;7.006;2023-04-25T05:38:11;10.90;99.90
10662;DHT22;5379;51.034;7.006;2023-04-25T05:40:39;10.90;99.90
10662;DHT22;5379;51.034;7.006;2023-04-25T05:43:06;11.10;99.90
10662;DHT22;5379;51.034;7.006;2023-04-25T05:45:33;11.20;99.90
10662;DHT22;5379;51.034;7.006;2023-04-25T05:48:00;11.30;99.90
10662;DHT22;5379;51.034;7.006;2023-04-25T05:50:28;11.40;99.90
10662;DHT22;5379;51.034;7.006;2023-04-25T05:52:55;11.50;99.90
10662;DHT22;5379;51.034;7.006;2023-04-25T05:55:22;11.50;99.90
10662;DHT22;5379;51.034;7.006;2023-04-25T05:57:51;11.80;99.90
10662;DHT22;5379;51.034;7.006;2023-04-25T06:00:18;11.70;99.90
10662;DHT22;5379;51.034;7.006;2023-04-25T06:02:48;11.50;99.90
10662;DHT22;5379;51.034;7.006;2023-04-25T06:05:15;11.30;99.90
10662;DHT22;5379;51.034;7.006;2023-04-25T06:07:42;11.30;99.90
10662;DHT22;5379;51.034;7.006;2023-04-25T06:10:09;11.40;99.90
10662;DHT22;5379;51.034;7.006;2023-04-25T06:12:36;11.30;99.90
10662;DHT22;5379;51.034;7.006;2023-04-25T06:15:06;11.50;99.90
10662;DHT22;5379;51.034;7.006;2023-04-25T06:17:33;11.60;99.90
10662;DHT22;5379;51.034;7.006;2023-04-25T06:20:00;9.40;99.70
10662;DHT22;5379;51.034;7.006;2023-04-25T06:22:28;11.60;99.90
10662;DHT22;5379;51.034;7.006;2023-04-25T06:24:55;11.90;99.90
10662;DHT22;5379;51.034;7.006;2023-04-25T06:27:24;11.80;99.50
10662;DHT22;5379;51.034;7.006;2023-04-25T06:29:51;11.70;99.50
10662;DHT22;5379;51.034;7.006;2023-04-25T06:32:19;11.60;99.50
10662;DHT22;5379;51.034;7.006;2023-04-25T06:34:46;11.70;99.30
10662;DHT22;5379;51.034;7.006;2023-04-25T06:37:14;11.80;99.30
10662;DHT22;5379;51.034;7.006;2023-04-25T06:39:41;12.00;99.10
10662;DHT22;5379;51.034;7.006;2023-04-25T06:42:08;12.20;98.50
10662;DHT22;5379;51.034;7.006;2023-04-25T06:44:35;12.30;98.30
10662;DHT22;5379;51.034;7.006;2023-04-25T06:47:02;12.20;98.30
10662;DHT22;5379;51.034;7.006;2023-04-25T06:49:30;12.20;98.40
10662;DHT22;5379;51.034;7.006;2023-04-25T06:51:57;12.20;98.50
10662;DHT22;5379;51.034;7.006;2023-04-25T06:54:24;12.30;98.00
10662;DHT22;5379;51.034;7.006;2023-04-25T06:56:52;12.30;98.00
10662;DHT22;5379;51.034;7.006;2023-04-25T06:59:20;12.60;98.00
10662;DHT22;5379;51.034;7.006;2023-04-25T07:01:47;12.70;97.70
10662;DHT22;5379;51.034;7.006;2023-04-25T07:04:14;12.60;97.80
10662;DHT22;5379;51.034;7.006;2023-04-25T07:06:42;12.30;97.60
10662;DHT22;5379;51.034;7.006;2023-04-25T07:09:09;12.50;98.00
10662;DHT22;5379;51.034;7.006;2023-04-25T07:11:36;12.70;98.00
10662;DHT22;5379;51.034;7.006;2023-04-25T07:14:03;12.50;97.40
10662;DHT22;5379;51.034;7.006;2023-04-25T07:16:31;12.50;97.50
10662;DHT22;5379;51.034;7.006;2023-04-25T07:18:57;12.50;97.70
10662;DHT22;5379;51.034;7.006;2023-04-25T07:21:25;12.30;97.50
10662;DHT22;5379;51.034;7.006;2023-04-25T07:23:53;12.00;98.00
10662;DHT22;5379;51.034;7.006;2023-04-25T07:26:20;12.10;98.60
10662;DHT22;5379;51.034;7.006;2023-04-25T07:28:47;12.30;98.50
10662;DHT22;5379;51.034;7.006;2023-04-25T07:31:16;12.50;98.90
10662;DHT22;5379;51.034;7.006;2023-04-25T07:33:44;12.70;97.60
10662;DHT22;5379;51.034;7.006;2023-04-25T07:36:11;12.70;98.10
10662;DHT22;5379;51.034;7.006;2023-04-25T07:38:38;12.60;98.20
10662;DHT22;5379;51.034;7.006;2023-04-25T07:41:07;12.60;98.20
10662;DHT22;5379;51.034;7.006;2023-04-25T07:43:34;12.90;97.60
10662;DHT22;5379;51.034;7.006;2023-04-25T07:46:01;12.80;97.40
10662;DHT22;5379;51.034;7.006;2023-04-25T07:48:28;12.50;96.80
10662;DHT22;5379;51.034;7.006;2023-04-25T07:50:55;12.40;96.40
10662;DHT22;5379;51.034;7.006;2023-04-25T07:53:22;12.50;95.80
10662;DHT22;5379;51.034;7.006;2023-04-25T07:55:49;12.70;95.40
10662;DHT22;5379;51.034;7.006;2023-04-25T07:58:18;12.70;95.40
10662;DHT22;5379;51.034;7.006;2023-04-25T08:00:47;12.90;94.90
10662;DHT22;5379;51.034;7.006;2023-04-25T08:03:14;12.60;94.30
10662;DHT22;5379;51.034;7.006;2023-04-25T08:05:41;12.70;94.80
10662;DHT22;5379;51.034;7.006;2023-04-25T08:08:08;12.70;93.80
10662;DHT22;5379;51.034;7.006;2023-04-25T08:10:35;12.70;94.20
10662;DHT22;5379;51.034;7.006;2023-04-25T08:13:02;12.90;94.80
10662;DHT22;5379;51.034;7.006;2023-04-25T08:15:30;12.70;95.10
10662;DHT22;5379;51.034;7.006;2023-04-25T08:17:57;12.60;96.00
10662;DHT22;5379;51.034;7.006;2023-04-25T08:20:25;12.50;96.10
10662;DHT22;5379;51.034;7.006;2023-04-25T08:22:51;12.60;95.50
10662;DHT22;5379;51.034;7.006;2023-04-25T08:25:18;12.60;95.30
10662;DHT22;5379;51.034;7.006;2023-04-25T08:27:45;12.50;95.20
10662;DHT22;5379;51.034;7.006;2023-04-25T08:30:13;12.70;95.00
10662;DHT22;5379;51.034;7.006;2023-04-25T08:32:41;12.80;95.20
10662;DHT22;5379;51.034;7.006;2023-04-25T08:35:08;12.90;95.80
10662;DHT22;5379;51.034;7.006;2023-04-25T08:37:35;13.20;94.60
10662;DHT22;5379;51.034;7.006;2023-04-25T08:40:04;13.00;94.60
10662;DHT22;5379;51.034;7.006;2023-04-25T08:42:33;12.80;94.30
10662;DHT22;5379;51.034;7.006;2023-04-25T08:45:01;12.70;94.70
10662;DHT22;5379;51.034;7.006;2023-04-25T08:47:30;13.70;94.30
10662;DHT22;5379;51.034;7.006;2023-04-25T08:50:03;13.70;94.10
10662;DHT22;5379;51.034;7.006;2023-04-25T08:52:35;13.80;93.80
10662;DHT22;5379;51.034;7.006;2023-04-25T08:55:03;13.60;93.90
10662;DHT22;5379;51.034;7.006;2023-04-25T08:57:32;13.30;94.20
10662;DHT22;5379;51.034;7.006;2023-04-25T09:00:01;13.00;94.70
10662;DHT22;5379;51.034;7.006;2023-04-25T09:02:29;12.90;94.70
10662;DHT22;5379;51.034;7.006;2023-04-25T09:04:57;12.80;95.30
10662;DHT22;5379;51.034;7.006;2023-04-25T09:07:25;13.10;95.40
10662;DHT22;5379;51.034;7.006;2023-04-25T09:09:52;13.30;94.90
10662;DHT22;5379;51.034;7.006;2023-04-25T09:12:19;14.10;97.40
10662;DHT22;5379;51.034;7.006;2023-04-25T09:15:03;14.10;93.70
10662;DHT22;5379;51.034;7.006;2023-04-25T09:17:30;14.00;94.20
10662;DHT22;5379;51.034;7.006;2023-04-25T09:20:06;15.80;93.90
10662;DHT22;5379;51.034;7.006;2023-04-25T09:22:36;13.90;91.30
10662;DHT22;5379;51.034;7.006;2023-04-25T09:25:07;13.60;92.20
10662;DHT22;5379;51.034;7.006;2023-04-25T09:27:34;13.60;92.50
10662;DHT22;5379;51.034;7.006;2023-04-25T09:30:02;14.00;92.50
10662;DHT22;5379;51.034;7.006;2023-04-25T09:32:30;13.60;92.60
10662;DHT22;5379;51.034;7.006;2023-04-25T09:34:57;13.20;92.90
10662;DHT22;5379;51.034;7.006;2023-04-25T09:37:26;12.80;93.60
10662;DHT22;5379;51.034;7.006;2023-04-25T09:39:56;13.10;93.90
10662;DHT22;5379;51.034;7.006;2023-04-25T09:42:25;13.30;94.10
10662;DHT22;5379;51.034;7.006;2023-04-25T09:44:53;13.30;92.80
10662;DHT22;5379;51.034;7.006;2023-04-25T09:47:21;13.60;91.60
10662;DHT22;5379;51.034;7.006;2023-04-25T09:49:50;14.00;90.50
10662;DHT22;5379;51.034;7.006;2023-04-25T09:52:18;14.00;90.80
10662;DHT22;5379;51.034;7.006;2023-04-25T09:54:46;14.50;92.40
10662;DHT22;5379;51.034;7.006;2023-04-25T09:57:16;14.80;89.90
10662;DHT22;5379;51.034;7.006;2023-04-25T09:59:44;14.20;90.70
10662;DHT22;5379;51.034;7.006;2023-04-25T10:02:12;14.00;90.60
10662;DHT22;5379;51.034;7.006;2023-04-25T10:04:41;13.80;90.20
10662;DHT22;5379;51.034;7.006;2023-04-25T10:07:08;13.80;90.20
10662;DHT22;5379;51.034;7.006;2023-04-25T10:09:37;14.30;90.80
10662;DHT22;5379;51.034;7.006;2023-04-25T10:12:05;14.90;90.80
10662;DHT22;5379;51.034;7.006;2023-04-25T10:14:34;14.70;88.20
10662;DHT22;5379;51.034;7.006;2023-04-25T10:17:01;14.50;87.60
10662;DHT22;5379;51.034;7.006;2023-04-25T10:19:29;14.40;89.20
10662;DHT22;5379;51.034;7.006;2023-04-25T10:22:03;14.70;90.20
10662;DHT22;5379;51.034;7.006;2023-04-25T10:24:30;15.10;94.20
10662;DHT22;5379;51.034;7.006;2023-04-25T10:26:58;15.60;91.70
10662;DHT22;5379;51.034;7.006;2023-04-25T10:29:26;16.00;89.30
10662;DHT22;5379;51.034;7.006;2023-04-25T10:31:54;15.60;89.60
10662;DHT22;5379;51.034;7.006;2023-04-25T10:34:24;14.90;89.30
10662;DHT22;5379;51.034;7.006;2023-04-25T10:37:03;14.70;89.90
10662;DHT22;5379;51.034;7.006;2023-04-25T10:39:32;14.80;90.10
10662;DHT22;5379;51.034;7.006;2023-04-25T10:42:02;14.10;90.60
10662;DHT22;5379;51.034;7.006;2023-04-25T10:44:31;13.80;91.50
10662;DHT22;5379;51.034;7.006;2023-04-25T10:47:03;13.90;90.40
10662;DHT22;5379;51.034;7.006;2023-04-25T10:49:35;13.90;90.40
10662;DHT22;5379;51.034;7.006;2023-04-25T10:52:17;14.30;95.80
10662;DHT22;5379;51.034;7.006;2023-04-25T10:54:48;15.60;97.10
10662;DHT22;5379;51.034;7.006;2023-04-25T10:57:47;15.50;87.40
10662;DHT22;5379;51.034;7.006;2023-04-25T11:00:16;14.80;88.50
10662;DHT22;5379;51.034;7.006;2023-04-25T11:02:47;14.60;88.40
10662;DHT22;5379;51.034;7.006;2023-04-25T11:05:20;14.70;89.00
10662;DHT22;5379;51.034;7.006;2023-04-25T11:08:02;14.80;89.00
10662;DHT22;5379;51.034;7.006;2023-04-25T11:10:31;14.60;88.90
10662;DHT22;5379;51.034;7.006;2023-04-25T11:13:01;14.00;89.80
10662;DHT22;5379;51.034;7.006;2023-04-25T11:15:28;14.50;88.70
10662;DHT22;5379;51.034;7.006;2023-04-25T11:17:57;14.80;88.00
10662;DHT22;5379;51.034;7.006;2023-04-25T11:20:26;14.80;87.90
10662;DHT22;5379;51.034;7.006;2023-04-25T11:22:57;14.90;86.80
10662;DHT22;5379;51.034;7.006;2023-04-25T11:25:26;15.00;87.10
10662;DHT22;5379;51.034;7.006;2023-04-25T11:27:54;15.50;94.40
10662;DHT22;5379;51.034;7.006;2023-04-25T11:30:22;16.30;92.70
10662;DHT22;5379;51.034;7.006;2023-04-25T11:32:50;16.50;89.00
10662;DHT22;5379;51.034;7.006;2023-04-25T11:35:19;17.00;84.80
10662;DHT22;5379;51.034;7.006;2023-04-25T11:37:49;15.30;81.80
10662;DHT22;5379;51.034;7.006;2023-04-25T11:40:17;14.60;82.40
10662;DHT22;5379;51.034;7.006;2023-04-25T11:42:45;14.70;84.70
10662;DHT22;5379;51.034;7.006;2023-04-25T11:45:14;14.60;86.00
10662;DHT22;5379;51.034;7.006;2023-04-25T11:47:41;15.00;84.60
10662;DHT22;5379;51.034;7.006;2023-04-25T11:50:09;15.20;84.10
10662;DHT22;5379;51.034;7.006;2023-04-25T11:52:38;15.20;83.50
10662;DHT22;5379;51.034;7.006;2023-04-25T11:55:07;15.20;88.90
10662;DHT22;5379;51.034;7.006;2023-04-25T11:57:34;16.30;90.50
10662;DHT22;5379;51.034;7.006;2023-04-25T12:00:09;16.50;90.80
10662;DHT22;5379;51.034;7.006;2023-04-25T12:02:40;16.30;79.60
10662;DHT22;5379;51.034;7.006;2023-04-25T12:05:07;16.30;81.00
10662;DHT22;5379;51.034;7.006;2023-04-25T12:07:35;16.20;81.90
10662;DHT22;5379;51.034;7.006;2023-04-25T12:10:09;16.50;86.30
10662;DHT22;5379;51.034;7.006;2023-04-25T12:12:38;17.70;93.60
10662;DHT22;5379;51.034;7.006;2023-04-25T12:15:12;17.60;90.00
10662;DHT22;5379;51.034;7.006;2023-04-25T12:17:41;18.20;84.80
10662;DHT22;5379;51.034;7.006;2023-04-25T12:20:10;17.40;81.20
10662;DHT22;5379;51.034;7.006;2023-04-25T12:22:41;16.40;81.80
10662;DHT22;5379;51.034;7.006;2023-04-25T12:25:12;16.20;81.20
10662;DHT22;5379;51.034;7.006;2023-04-25T12:27:40;16.00;80.50
10662;DHT22;5379;51.034;7.006;2023-04-25T12:30:08;15.60;80.70
10662;DHT22;5379;51.034;7.006;2023-04-25T12:32:36;15.20;80.40
10662;DHT22;5379;51.034;7.006;2023-04-25T12:35:03;15.00;79.90
10662;DHT22;5379;51.034;7.006;2023-04-25T12:37:30;14.90;80.40
10662;DHT22;5379;51.034;7.006;2023-04-25T12:39:57;15.10;82.90
10662;DHT22;5379;51.034;7.006;2023-04-25T12:42:25;15.30;82.10
10662;DHT22;5379;51.034;7.006;2023-04-25T12:44:52;15.10;88.30
10662;DHT22;5379;51.034;7.006;2023-04-25T12:47:19;16.30;88.00
10662;DHT22;5379;51.034;7.006;2023-04-25T12:49:46;16.20;83.60
10662;DHT22;5379;51.034;7.006;2023-04-25T12:52:13;16.30;92.80
10662;DHT22;5379;51.034;7.006;2023-04-25T12:54:40;16.80;89.30
10662;DHT22;5379;51.034;7.006;2023-04-25T12:57:07;16.70;84.20
10662;DHT22;5379;51.034;7.006;2023-04-25T12:59:35;17.50;93.60
10662;DHT22;5379;51.034;7.006;2023-04-25T13:02:02;17.70;83.00
10662;DHT22;5379;51.034;7.006;2023-04-25T13:04:29;16.40;82.10
10662;DHT22;5379;51.034;7.006;2023-04-25T13:06:56;15.70;84.80
10662;DHT22;5379;51.034;7.006;2023-04-25T13:09:23;15.40;83.00
10662;DHT22;5379;51.034;7.006;2023-04-25T13:11:50;15.50;84.80
10662;DHT22;5379;51.034;7.006;2023-04-25T13:14:17;15.30;83.90
10662;DHT22;5379;51.034;7.006;2023-04-25T13:16:45;15.10;84.50
10662;DHT22;5379;51.034;7.006;2023-04-25T13:19:12;14.90;85.50
10662;DHT22;5379;51.034;7.006;2023-04-25T13:21:39;14.90;87.30
10662;DHT22;5379;51.034;7.006;2023-04-25T13:24:06;15.00;87.30
10662;DHT22;5379;51.034;7.006;2023-04-25T13:26:33;14.90;90.50
10662;DHT22;5379;51.034;7.006;2023-04-25T13:29:01;14.60;91.50
10662;DHT22;5379;51.034;7.006;2023-04-25T13:31:29;14.20;92.10
10662;DHT22;5379;51.034;7.006;2023-04-25T13:33:58;13.70;92.80
10662;DHT22;5379;51.034;7.006;2023-04-25T13:36:25;13.10;93.50
10662;DHT22;5379;51.034;7.006;2023-04-25T13:38:53;13.10;93.20
10662;DHT22;5379;51.034;7.006;2023-04-25T13:41:20;13.10;93.80
10662;DHT22;5379;51.034;7.006;2023-04-25T13:43:47;13.60;93.70
10662;DHT22;5379;51.034;7.006;2023-04-25T13:46:14;13.50;93.30
10662;DHT22;5379;51.034;7.006;2023-04-25T13:48:42;13.90;92.60
10662;DHT22;5379;51.034;7.006;2023-04-25T13:51:15;14.20;92.70
10662;DHT22;5379;51.034;7.006;2023-04-25T13:53:43;14.50;92.20
10662;DHT22;5379;51.034;7.006;2023-04-25T13:56:11;14.90;92.30
10662;DHT22;5379;51.034;7.006;2023-04-25T13:58:38;15.40;91.00
10662;DHT22;5379;51.034;7.006;2023-04-25T14:01:05;15.50;90.20
10662;DHT22;5379;51.034;7.006;2023-04-25T14:03:32;16.10;91.10
10662;DHT22;5379;51.034;7.006;2023-04-25T14:06:02;15.90;90.30
10662;DHT22;5379;51.034;7.006;2023-04-25T14:08:35;16.00;92.10
10662;DHT22;5379;51.034;7.006;2023-04-25T14:11:11;15.50;87.90
10662;DHT22;5379;51.034;7.006;2023-04-25T14:13:57;14.20;88.20
10662;DHT22;5379;51.034;7.006;2023-04-25T14:16:29;15.20;89.10
10662;DHT22;5379;51.034;7.006;2023-04-25T14:19:03;15.40;89.70
10662;DHT22;5379;51.034;7.006;2023-04-25T14:51:40;14.70;82.60
10662;DHT22;5379;51.034;7.006;2023-04-25T14:54:07;14.90;84.40
10662;DHT22;5379;51.034;7.006;2023-04-25T14:56:34;15.20;83.20
10662;DHT22;5379;51.034;7.006;2023-04-25T14:59:01;15.20;84.10
10662;DHT22;5379;51.034;7.006;2023-04-25T15:03:55;15.30;85.00
10662;DHT22;5379;51.034;7.006;2023-04-25T15:06:22;15.70;85.20
10662;DHT22;5379;51.034;7.006;2023-04-25T15:08:53;15.40;84.10
10662;DHT22;5379;51.034;7.006;2023-04-25T15:11:20;14.90;85.90
10662;DHT22;5379;51.034;7.006;2023-04-25T15:13:47;16.30;88.10
10662;DHT22;5379;51.034;7.006;2023-04-25T15:16:14;15.50;86.30
10662;DHT22;5379;51.034;7.006;2023-04-25T15:18:41;16.00;86.20
10662;DHT22;5379;51.034;7.006;2023-04-25T15:21:08;15.60;85.10
10662;DHT22;5379;51.034;7.006;2023-04-25T15:23:35;15.20;86.80
10662;DHT22;5379;51.034;7.006;2023-04-25T15:26:03;15.50;85.90
10662;DHT22;5379;51.034;7.006;2023-04-25T15:28:30;15.90;86.90
10662;DHT22;5379;51.034;7.006;2023-04-25T15:30:59;15.50;90.30
10662;DHT22;5379;51.034;7.006;2023-04-25T15:33:26;15.20;90.30
10662;DHT22;5379;51.034;7.006;2023-04-25T15:35:53;15.20;90.20
10662;DHT22;5379;51.034;7.006;2023-04-25T15:38:20;15.30;89.60
10662;DHT22;5379;51.034;7.006;2023-04-25T15:40:47;15.60;89.90
10662;DHT22;5379;51.034;7.006;2023-04-25T15:43:15;15.90;91.50
10662;DHT22;5379;51.034;7.006;2023-04-25T15:45:42;16.40;88.50
10662;DHT22;5379;51.034;7.006;2023-04-25T15:48:10;16.30;87.30
10662;DHT22;5379;51.034;7.006;2023-04-25T15:50:37;15.90;85.70
10662;DHT22;5379;51.034;7.006;2023-04-25T15:53:04;15.80;85.50
10662;DHT22;5379;51.034;7.006;2023-04-25T15:55:31;15.80;85.60
10662;DHT22;5379;51.034;7.006;2023-04-25T15:57:58;16.00;85.50
10662;DHT22;5379;51.034;7.006;2023-04-25T16:00:50;15.30;84.80
10662;DHT22;5379;51.034;7.006;2023-04-25T16:03:31;15.40;86.30
10662;DHT22;5379;51.034;7.006;2023-04-25T16:05:58;15.70;86.10
10662;DHT22;5379;51.034;7.006;2023-04-25T16:08:26;16.20;91.10
10662;DHT22;5379;51.034;7.006;2023-04-25T16:10:54;16.40;90.20
10662;DHT22;5379;51.034;7.006;2023-04-25T16:13:22;16.70;89.10
10662;DHT22;5379;51.034;7.006;2023-04-25T16:15:52;16.90;85.40
10662;DHT22;5379;51.034;7.006;2023-04-25T16:18:19;16.90;86.70
10662;DHT22;5379;51.034;7.006;2023-04-25T16:20:46;17.40;87.00
10662;DHT22;5379;51.034;7.006;2023-04-25T16:23:13;17.90;85.10
10662;DHT22;5379;51.034;7.006;2023-04-25T16:25:40;18.20;93.30
10662;DHT22;5379;51.034;7.006;2023-04-25T16:28:07;18.00;82.70
10662;DHT22;5379;51.034;7.006;2023-04-25T16:30:34;17.10;86.10
10662;DHT22;5379;51.034;7.006;2023-04-25T16:33:03;16.90;86.40
10662;DHT22;5379;51.034;7.006;2023-04-25T16:35:29;17.70;87.90
10662;DHT22;5379;51.034;7.006;2023-04-25T16:37:57;16.60;85.30
10662;DHT22;5379;51.034;7.006;2023-04-25T16:40:24;16.40;86.40
10662;DHT22;5379;51.034;7.006;2023-04-25T16:42:51;16.70;86.10
10662;DHT22;5379;51.034;7.006;2023-04-25T16:45:18;16.80;90.40
10662;DHT22;5379;51.034;7.006;2023-04-25T16:47:45;17.20;86.10
10662;DHT22;5379;51.034;7.006;2023-04-25T16:50:14;17.00;85.90
10662;DHT22;5379;51.034;7.006;2023-04-25T16:52:41;17.20;91.00
10662;DHT22;5379;51.034;7.006;2023-04-25T16:55:08;17.00;87.30
10662;DHT22;5379;51.034;7.006;2023-04-25T16:57:35;15.30;81.70
10662;DHT22;5379;51.034;7.006;2023-04-25T17:00:03;14.70;83.80
10662;DHT22;5379;51.034;7.006;2023-04-25T17:02:30;15.10;91.60
10662;DHT22;5379;51.034;7.006;2023-04-25T17:04:57;15.30;85.20
10662;DHT22;5379;51.034;7.006;2023-04-25T17:07:25;15.00;85.20
10662;DHT22;5379;51.034;7.006;2023-04-25T17:09:52;15.50;85.10
10662;DHT22;5379;51.034;7.006;2023-04-25T17:12:20;15.40;83.70
10662;DHT22;5379;51.034;7.006;2023-04-25T17:14:47;15.70;83.20
10662;DHT22;5379;51.034;7.006;2023-04-25T17:17:14;16.00;81.30
10662;DHT22;5379;51.034;7.006;2023-04-25T17:19:43;16.20;82.40
10662;DHT22;5379;51.034;7.006;2023-04-25T17:22:10;16.60;80.80
10662;DHT22;5379;51.034;7.006;2023-04-25T17:24:38;16.10;81.00
10662;DHT22;5379;51.034;7.006;2023-04-25T17:27:06;15.30;84.20
10662;DHT22;5379;51.034;7.006;2023-04-25T17:29:33;15.60;90.40
10662;DHT22;5379;51.034;7.006;2023-04-25T17:32:00;15.80;85.10
10662;DHT22;5379;51.034;7.006;2023-04-25T17:34:27;15.70;84.80
10662;DHT22;5379;51.034;7.006;2023-04-25T17:36:56;15.50;84.50
10662;DHT22;5379;51.034;7.006;2023-04-25T17:39:23;15.40;85.00
10662;DHT22;5379;51.034;7.006;2023-04-25T17:41:51;15.60;84.50
10662;DHT22;5379;51.034;7.006;2023-04-25T17:44:18;15.60;84.30
10662;DHT22;5379;51.034;7.006;2023-04-25T17:46:45;15.80;83.90
10662;DHT22;5379;51.034;7.006;2023-04-25T17:49:12;16.60;90.30
10662;DHT22;5379;51.034;7.006;2023-04-25T17:51:39;16.10;83.50
10662;DHT22;5379;51.034;7.006;2023-04-25T17:54:06;15.90;83.30
10662;DHT22;5379;51.034;7.006;2023-04-25T17:56:35;15.80;83.10
10662;DHT22;5379;51.034;7.006;2023-04-25T17:59:04;15.90;82.70
10662;DHT22;5379;51.034;7.006;2023-04-25T18:01:31;16.00;89.90
10662;DHT22;5379;51.034;7.006;2023-04-25T18:03:58;16.40;82.10
10662;DHT22;5379;51.034;7.006;2023-04-25T18:06:26;16.80;82.20
10662;DHT22;5379;51.034;7.006;2023-04-25T18:08:53;16.80;90.00
10662;DHT22;5379;51.034;7.006;2023-04-25T18:11:22;17.20;90.90
10662;DHT22;5379;51.034;7.006;2023-04-25T18:13:49;17.20;79.20
10662;DHT22;5379;51.034;7.006;2023-04-25T18:16:17;16.90;84.90
10662;DHT22;5379;51.034;7.006;2023-04-25T18:18:45;16.80;87.10
10662;DHT22;5379;51.034;7.006;2023-04-25T18:21:17;16.50;79.40
10662;DHT22;5379;51.034;7.006;2023-04-25T18:23:44;16.40;82.60
10662;DHT22;5379;51.034;7.006;2023-04-25T18:26:11;16.30;82.30
10662;DHT22;5379;51.034;7.006;2023-04-25T18:28:38;15.20;83.30
10662;DHT22;5379;51.034;7.006;2023-04-25T18:31:05;15.20;87.90
10662;DHT22;5379;51.034;7.006;2023-04-25T18:33:35;14.90;84.50
10662;DHT22;5379;51.034;7.006;2023-04-25T18:36:02;14.30;85.50
10662;DHT22;5379;51.034;7.006;2023-04-25T18:38:29;13.80;86.00
10662;DHT22;5379;51.034;7.006;2023-04-25T18:40:56;13.70;87.00
10662;DHT22;5379;51.034;7.006;2023-04-25T18:43:23;13.80;87.30
10662;DHT22;5379;51.034;7.006;2023-04-25T18:45:50;13.80;87.70
10662;DHT22;5379;51.034;7.006;2023-04-25T18:48:16;13.90;87.20
10662;DHT22;5379;51.034;7.006;2023-04-25T18:50:45;14.20;86.60
10662;DHT22;5379;51.034;7.006;2023-04-25T18:53:12;14.30;86.90
10662;DHT22;5379;51.034;7.006;2023-04-25T18:55:38;14.00;87.30
10662;DHT22;5379;51.034;7.006;2023-04-25T18:58:06;13.80;88.10
10662;DHT22;5379;51.034;7.006;2023-04-25T19:00:33;13.90;87.40
10662;DHT22;5379;51.034;7.006;2023-04-25T19:03:01;14.20;89.90
10662;DHT22;5379;51.034;7.006;2023-04-25T19:05:29;14.10;87.40
10662;DHT22;5379;51.034;7.006;2023-04-25T19:07:57;14.00;88.60
10662;DHT22;5379;51.034;7.006;2023-04-25T19:10:25;13.90;88.20
10662;DHT22;5379;51.034;7.006;2023-04-25T19:12:53;13.90;88.00
10662;DHT22;5379;51.034;7.006;2023-04-25T19:15:20;13.90;88.00
10662;DHT22;5379;51.034;7.006;2023-04-25T19:17:48;13.90;88.10
10662;DHT22;5379;51.034;7.006;2023-04-25T19:20:16;13.80;88.20
10662;DHT22;5379;51.034;7.006;2023-04-25T19:22:44;13.70;88.40
10662;DHT22;5379;51.034;7.006;2023-04-25T19:25:13;13.60;88.80
10662;DHT22;5379;51.034;7.006;2023-04-25T19:27:40;13.60;88.60
10662;DHT22;5379;51.034;7.006;2023-04-25T19:30:08;13.60;89.20
10662;DHT22;5379;51.034;7.006;2023-04-25T19:32:35;13.60;88.70
10662;DHT22;5379;51.034;7.006;2023-04-25T19:35:03;13.70;88.40
10662;DHT22;5379;51.034;7.006;2023-04-25T19:37:30;13.50;89.00
10662;DHT22;5379;51.034;7.006;2023-04-25T19:39:57;13.50;88.70
10662;DHT22;5379;51.034;7.006;2023-04-25T19:42:25;13.20;88.60
10662;DHT22;5379;51.034;7.006;2023-04-25T19:44:52;12.90;89.90
10662;DHT22;5379;51.034;7.006;2023-04-25T19:47:19;13.00;90.10
10662;DHT22;5379;51.034;7.006;2023-04-25T19:49:46;12.90;90.20
10662;DHT22;5379;51.034;7.006;2023-04-25T19:52:13;12.90;90.30
10662;DHT22;5379;51.034;7.006;2023-04-25T19:54:41;12.90;90.30
10662;DHT22;5379;51.034;7.006;2023-04-25T19:57:10;12.90;90.20
10662;DHT22;5379;51.034;7.006;2023-04-25T19:59:38;12.80;90.50
10662;DHT22;5379;51.034;7.006;2023-04-25T20:02:05;12.80;90.40
10662;DHT22;5379;51.034;7.006;2023-04-25T20:04:33;12.80;91.10
10662;DHT22;5379;51.034;7.006;2023-04-25T20:07:00;12.80;91.00
10662;DHT22;5379;51.034;7.006;2023-04-25T20:09:29;12.70;90.80
10662;DHT22;5379;51.034;7.006;2023-04-25T20:11:55;12.70;90.70
10662;DHT22;5379;51.034;7.006;2023-04-25T20:14:23;12.60;90.90
10662;DHT22;5379;51.034;7.006;2023-04-25T20:16:52;12.50;90.80
10662;DHT22;5379;51.034;7.006;2023-04-25T20:19:19;12.40;91.00
10662;DHT22;5379;51.034;7.006;2023-04-25T20:21:45;12.40;91.10
10662;DHT22;5379;51.034;7.006;2023-04-25T20:24:13;12.50;91.30
10662;DHT22;5379;51.034;7.006;2023-04-25T20:26:40;12.50;91.20
10662;DHT22;5379;51.034;7.006;2023-04-25T20:29:06;12.50;91.20
10662;DHT22;5379;51.034;7.006;2023-04-25T20:31:34;12.50;91.50
10662;DHT22;5379;51.034;7.006;2023-04-25T20:34:02;12.50;91.30
10662;DHT22;5379;51.034;7.006;2023-04-25T20:36:29;12.40;91.70
10662;DHT22;5379;51.034;7.006;2023-04-25T20:38:57;12.40;91.50
10662;DHT22;5379;51.034;7.006;2023-04-25T20:41:24;12.30;91.80
10662;DHT22;5379;51.034;7.006;2023-04-25T20:43:52;12.30;91.60
10662;DHT22;5379;51.034;7.006;2023-04-25T20:46:19;12.30;91.60
10662;DHT22;5379;51.034;7.006;2023-04-25T20:48:46;12.30;91.50
10662;DHT22;5379;51.034;7.006;2023-04-25T20:51:15;12.10;91.70
10662;DHT22;5379;51.034;7.006;2023-04-25T20:53:42;12.10;91.90